Terminal Aerodrome Forecast
Issued by NWS Central Illinois

Home | Current Version | Previous Version | Text Only | Print | Product List | Glossary On
Versions: 1 2 3 4 5 6 7 8 9 10 11 12 13 14 15 16 17 18 19
000
FTUS43 KILX 292338
TAFSPI
TAF
KSPI 292338Z 3000/3024 09004KT P6SM VCTS BKN040CB
     FM300100 VRB03KT P6SM SCT250
     FM300900 VRB03KT 4SM BR SCT250
     FM301400 13005KT P6SM VCSH SCT035 BKN080
     FM301800 VRB04KT P6SM VCTS SCT040CB BKN250=

USA.gov is the U.S. government's official web portal to all federal, state and local government web resources and services.